createdAt,value
2017-11-03T00:01:07.066Z,98982
2017-11-03T00:03:35.928Z,98986
2017-11-03T00:06:04.016Z,98980
2017-11-03T00:08:32.096Z,98977
2017-11-03T00:11:00.180Z,98990
2017-11-03T00:13:29.038Z,98979
2017-11-03T00:15:57.143Z,98978
2017-11-03T00:18:25.224Z,98983
2017-11-03T00:20:54.289Z,98985
2017-11-03T00:23:22.363Z,98989
2017-11-03T00:25:50.455Z,98986
2017-11-03T00:28:18.540Z,98987
2017-11-03T00:30:47.393Z,98986
2017-11-03T00:33:15.477Z,98989
2017-11-03T00:35:43.567Z,98986
2017-11-03T00:38:12.438Z,99002
2017-11-03T00:40:40.520Z,98991
2017-11-03T00:43:08.604Z,98987
2017-11-03T00:45:37.464Z,98997
2017-11-03T00:48:05.556Z,98997
2017-11-03T00:50:33.628Z,99001
2017-11-03T00:53:01.722Z,98998
2017-11-03T00:55:30.572Z,99004
2017-11-03T00:57:58.656Z,99011
2017-11-03T01:00:26.869Z,99015
2017-11-03T01:02:55.715Z,99016
2017-11-03T01:05:23.796Z,99018
2017-11-03T01:07:51.878Z,99011
2017-11-03T01:10:19.960Z,99014
2017-11-03T01:12:48.816Z,99013
2017-11-03T01:15:16.897Z,99008
2017-11-03T01:17:44.988Z,99012
2017-11-03T01:20:13.072Z,99016
2017-11-03T01:22:41.928Z,99013
2017-11-03T01:25:10.053Z,99017
2017-11-03T01:27:38.128Z,99013
2017-11-03T01:30:06.203Z,99011
2017-11-03T01:32:34.305Z,99017
2017-11-03T01:35:03.145Z,99011
2017-11-03T01:37:32.004Z,99013
2017-11-03T01:40:00.084Z,99012
2017-11-03T01:42:28.176Z,99014
2017-11-03T01:44:57.031Z,99026
2017-11-03T01:47:25.108Z,99026
2017-11-03T01:49:53.196Z,99026
2017-11-03T01:52:21.292Z,99027
2017-11-03T01:54:50.144Z,99023
2017-11-03T01:57:18.228Z,99014
2017-11-03T01:59:46.299Z,99019
2017-11-03T02:02:14.393Z,99015
2017-11-03T02:04:42.464Z,99022
2017-11-03T02:07:11.324Z,99015
2017-11-03T02:09:39.399Z,99027
2017-11-03T02:12:07.488Z,99020
2017-11-03T02:14:35.567Z,99019
2017-11-03T02:17:03.651Z,99016
2017-11-03T02:19:32.544Z,99016
2017-11-03T02:22:01.396Z,99027
2017-11-03T02:24:29.642Z,99021
2017-11-03T02:26:57.724Z,99016
2017-11-03T02:29:25.807Z,99018
2017-11-03T02:31:53.897Z,99030
2017-11-03T02:34:21.983Z,99019
2017-11-03T02:36:50.065Z,99024
2017-11-03T02:39:18.131Z,99030
2017-11-03T02:41:46.216Z,99031
2017-11-03T02:44:14.294Z,99029
2017-11-03T02:46:43.160Z,99026
2017-11-03T02:49:11.243Z,99029
2017-11-03T02:51:39.328Z,99031
2017-11-03T02:54:07.400Z,99033
2017-11-03T02:56:37.088Z,99039
2017-11-03T02:59:05.174Z,99032
2017-11-03T03:01:33.251Z,99032
2017-11-03T03:04:02.100Z,99037
2017-11-03T03:06:30.184Z,99041
2017-11-03T03:08:58.267Z,99041
2017-11-03T03:11:26.352Z,99031
2017-11-03T03:13:54.428Z,99036
2017-11-03T03:16:22.516Z,99053
2017-11-03T03:18:51.361Z,99052
2017-11-03T03:21:19.437Z,99054
2017-11-03T03:23:47.540Z,99050
2017-11-03T03:26:15.607Z,99050
2017-11-03T03:28:44.473Z,99048
2017-11-03T03:31:12.546Z,99042
2017-11-03T03:33:40.633Z,99053
2017-11-03T03:36:08.692Z,99064
2017-11-03T03:38:36.776Z,99064
2017-11-03T03:41:04.860Z,99062
2017-11-03T03:43:32.939Z,99071
2017-11-03T03:46:01.784Z,99073
2017-11-03T03:48:29.876Z,99078
2017-11-03T03:50:58.089Z,99074
2017-11-03T03:53:26.935Z,99075
2017-11-03T03:55:55.011Z,99069
2017-11-03T03:58:23.102Z,99077
2017-11-03T04:00:51.180Z,99068
2017-11-03T04:03:19.263Z,99061
2017-11-03T04:05:48.108Z,99061
2017-11-03T04:08:16.216Z,99060
2017-11-03T04:10:44.293Z,99063
2017-11-03T04:13:12.375Z,99068
2017-11-03T04:15:41.219Z,99067
2017-11-03T04:18:09.296Z,99065
2017-11-03T04:20:37.376Z,99061
2017-11-03T04:23:05.675Z,99064
2017-11-03T04:25:33.801Z,99070
2017-11-03T04:28:02.642Z,99063
2017-11-03T04:30:30.715Z,99063
2017-11-03T04:32:58.800Z,99069
2017-11-03T04:35:27.650Z,99073
2017-11-03T04:37:55.737Z,99074
2017-11-03T04:40:23.807Z,99075
2017-11-03T04:42:51.884Z,99069
2017-11-03T04:45:19.972Z,99077
2017-11-03T04:47:48.051Z,99080
2017-11-03T04:50:16.919Z,99067
2017-11-03T04:52:45.005Z,99074
2017-11-03T04:55:14.736Z,99069
2017-11-03T04:57:43.588Z,99072
2017-11-03T05:00:11.872Z,99074
2017-11-03T05:02:39.951Z,99071
2017-11-03T05:05:08.029Z,99074
2017-11-03T05:07:36.112Z,99076
2017-11-03T05:10:04.964Z,99081
2017-11-03T05:12:33.052Z,99079
2017-11-03T05:15:01.127Z,99076
2017-11-03T05:17:29.219Z,99082
2017-11-03T05:19:58.061Z,99094
2017-11-03T05:22:26.161Z,99093
2017-11-03T05:24:54.237Z,99088
2017-11-03T05:27:22.314Z,99087
2017-11-03T05:29:50.392Z,99090
2017-11-03T05:32:19.243Z,99096
2017-11-03T05:34:47.324Z,99098
2017-11-03T05:37:15.416Z,99091
2017-11-03T05:39:43.496Z,99091
2017-11-03T05:42:11.580Z,99088
2017-11-03T05:44:39.652Z,99100
2017-11-03T05:47:08.518Z,99106
2017-11-03T05:49:36.600Z,99100
2017-11-03T05:52:04.687Z,99114
2017-11-03T05:54:32.766Z,99111
2017-11-03T05:57:01.616Z,99120
2017-11-03T05:59:29.697Z,99110
2017-11-03T06:01:57.776Z,99110
2017-11-03T06:04:25.865Z,99121
2017-11-03T06:06:54.716Z,99120
2017-11-03T06:09:22.812Z,99122
2017-11-03T06:11:50.885Z,99127
2017-11-03T06:14:18.967Z,99131
2017-11-03T06:16:47.042Z,99126
2017-11-03T06:19:15.146Z,99131
2017-11-03T06:21:43.207Z,99131
2017-11-03T06:24:11.293Z,99143
2017-11-03T06:26:39.382Z,99139
2017-11-03T06:29:08.223Z,99143
2017-11-03T06:31:36.287Z,99147
2017-11-03T06:34:04.376Z,99149
2017-11-03T06:36:33.217Z,99154
2017-11-03T06:39:01.302Z,99159
2017-11-03T06:41:29.379Z,99146
2017-11-03T06:43:57.465Z,99158
2017-11-03T06:46:25.552Z,99162
2017-11-03T06:48:53.637Z,99168
2017-11-03T06:51:22.488Z,99172
2017-11-03T06:53:50.613Z,99173
2017-11-03T06:56:19.452Z,99184
2017-11-03T06:58:47.538Z,99189
2017-11-03T07:01:15.615Z,99184
2017-11-03T07:03:43.696Z,99191
2017-11-03T07:06:11.779Z,99191
2017-11-03T07:08:40.636Z,99193
2017-11-03T07:11:08.704Z,99201
2017-11-03T07:13:36.780Z,99200
2017-11-03T07:16:04.857Z,99192
2017-11-03T07:18:32.951Z,99196
2017-11-03T07:21:01.024Z,99194
2017-11-03T07:23:29.100Z,99194
2017-11-03T07:25:57.939Z,99195
2017-11-03T07:28:26.032Z,99186
2017-11-03T07:30:54.107Z,99195
2017-11-03T07:33:22.186Z,99188
2017-11-03T07:35:50.268Z,99197
2017-11-03T07:38:18.351Z,99185
2017-11-03T07:40:46.423Z,99202
2017-11-03T07:43:14.502Z,99192
2017-11-03T07:45:43.349Z,99197
2017-11-03T07:48:11.427Z,99189
2017-11-03T07:50:39.595Z,99192
2017-11-03T07:53:07.692Z,99189
2017-11-03T07:55:35.768Z,99179
2017-11-03T07:58:03.849Z,99187
2017-11-03T08:00:31.936Z,99192
2017-11-03T08:03:00.784Z,99201
2017-11-03T08:05:28.865Z,99183
2017-11-03T08:07:56.948Z,99187
2017-11-03T08:10:25.032Z,99188
2017-11-03T08:12:53.108Z,99184
2017-11-03T08:15:21.189Z,99190
2017-11-03T08:17:50.072Z,99185
2017-11-03T08:20:18.912Z,99182
2017-11-03T08:22:46.998Z,99184
2017-11-03T08:25:15.084Z,99185
2017-11-03T08:27:43.187Z,99197
2017-11-03T08:30:12.040Z,99198
2017-11-03T08:32:40.129Z,99192
2017-11-03T08:35:08.212Z,99193
2017-11-03T08:37:36.284Z,99194
2017-11-03T08:40:04.376Z,99194
2017-11-03T08:42:33.226Z,99195
2017-11-03T08:45:01.313Z,99184
2017-11-03T08:47:29.395Z,99191
2017-11-03T08:49:58.253Z,99184
2017-11-03T08:52:26.332Z,99181
2017-11-03T08:54:54.429Z,99193
2017-11-03T08:57:22.508Z,99201
2017-11-03T08:59:51.362Z,99199
2017-11-03T09:02:19.444Z,99205
2017-11-03T09:04:47.529Z,99210
2017-11-03T09:07:15.612Z,99205
2017-11-03T09:09:43.699Z,99201
2017-11-03T09:12:12.570Z,99211
2017-11-03T09:14:40.656Z,99214
2017-11-03T09:17:09.500Z,99214
2017-11-03T09:19:37.588Z,99221
2017-11-03T09:22:05.671Z,99222
2017-11-03T09:24:33.764Z,99212
2017-11-03T09:27:02.608Z,99221
2017-11-03T09:29:30.690Z,99212
2017-11-03T09:31:58.775Z,99222
2017-11-03T09:34:26.859Z,99204
2017-11-03T09:36:54.927Z,99220
2017-11-03T09:39:23.004Z,99212
2017-11-03T09:41:51.067Z,99205
2017-11-03T09:44:19.169Z,99203
2017-11-03T09:46:48.019Z,99197
2017-11-03T09:49:16.112Z,99201
2017-11-03T09:51:44.195Z,99207
2017-11-03T09:54:12.272Z,99193
2017-11-03T09:56:41.115Z,99199
2017-11-03T09:59:09.199Z,99199
2017-11-03T10:01:37.276Z,99189
2017-11-03T10:04:05.359Z,99194
2017-11-03T10:06:33.441Z,99180
2017-11-03T10:09:01.523Z,99193
2017-11-03T10:11:29.593Z,99189
2017-11-03T10:13:58.450Z,99186
2017-11-03T10:16:26.528Z,99181
2017-11-03T10:18:54.629Z,99174
2017-11-03T10:21:22.701Z,99173
2017-11-03T10:23:51.567Z,99172
2017-11-03T10:26:19.636Z,99159
2017-11-03T10:28:47.736Z,99164
2017-11-03T10:31:15.820Z,99162
2017-11-03T10:33:44.672Z,99160
2017-11-03T10:36:12.749Z,99149
2017-11-03T10:38:40.854Z,99149
2017-11-03T10:41:08.924Z,99148
2017-11-03T10:43:37.772Z,99147
2017-11-03T10:46:05.849Z,99142
2017-11-03T10:48:33.942Z,99141
2017-11-03T10:51:02.031Z,99139
2017-11-03T10:53:30.108Z,99127
2017-11-03T10:55:58.965Z,99130
2017-11-03T10:58:27.060Z,99122
2017-11-03T11:00:55.148Z,99123
2017-11-03T11:03:24.029Z,99117
2017-11-03T11:05:52.112Z,99104
2017-11-03T11:08:20.973Z,99107
2017-11-03T11:10:49.051Z,99096
2017-11-03T11:13:17.137Z,99094
2017-11-03T11:15:45.226Z,99093
2017-11-03T11:18:14.076Z,99092
2017-11-03T11:20:42.164Z,99088
2017-11-03T11:23:10.244Z,99087
2017-11-03T11:25:38.326Z,99078
2017-11-03T11:28:07.164Z,99082
2017-11-03T11:30:35.503Z,99074
2017-11-03T11:33:04.351Z,99079
2017-11-03T11:35:32.436Z,99065
2017-11-03T11:38:00.530Z,99067
2017-11-03T11:40:28.613Z,99069
2017-11-03T11:42:57.464Z,99065
2017-11-03T11:45:25.557Z,99064
2017-11-03T11:47:53.636Z,99061
2017-11-03T11:50:22.501Z,99064
2017-11-03T11:52:50.596Z,99060
2017-11-03T11:55:18.695Z,99063
2017-11-03T11:57:46.791Z,99053
2017-11-03T12:00:15.068Z,99055
2017-11-03T12:02:43.140Z,99047
2017-11-03T12:05:11.993Z,99048
2017-11-03T12:07:40.844Z,99043
2017-11-03T12:10:09.055Z,99044
2017-11-03T12:12:37.148Z,99047
2017-11-03T12:15:05.263Z,99050
2017-11-03T12:17:33.344Z,99057
2017-11-03T12:20:01.428Z,99056
2017-11-03T12:22:29.518Z,99061
2017-11-03T12:24:57.605Z,99048
2017-11-03T12:27:26.448Z,99038
2017-11-03T12:29:54.554Z,99034
2017-11-03T12:32:23.414Z,99034
2017-11-03T12:34:51.505Z,99042
2017-11-03T12:37:19.592Z,99039
2017-11-03T12:39:48.459Z,99034
2017-11-03T12:42:16.547Z,99031
2017-11-03T12:44:44.636Z,99029
2017-11-03T12:47:13.488Z,99037
2017-11-03T12:49:41.572Z,99026
2017-11-03T12:52:09.661Z,99022
2017-11-03T12:54:38.551Z,99036
2017-11-03T12:57:06.692Z,99036
2017-11-03T12:59:34.783Z,99018
2017-11-03T13:02:02.882Z,99019
2017-11-03T13:04:31.734Z,99017
2017-11-03T13:06:59.829Z,99011
2017-11-03T13:09:27.920Z,99006
2017-11-03T13:11:56.764Z,99009
2017-11-03T13:14:24.860Z,99012
2017-11-03T13:16:53.720Z,99013
2017-11-03T13:19:21.813Z,99014
2017-11-03T13:21:49.898Z,99005
2017-11-03T13:24:17.979Z,99005
2017-11-03T13:26:46.064Z,99003
2017-11-03T13:29:14.934Z,98995
2017-11-03T13:31:43.011Z,98995
2017-11-03T13:34:11.096Z,98996
2017-11-03T13:36:39.944Z,98993
2017-11-03T13:39:08.033Z,98982
2017-11-03T13:41:36.116Z,98993
2017-11-03T13:44:04.245Z,98994
2017-11-03T13:46:32.320Z,98991
2017-11-03T13:49:01.166Z,98974
2017-11-03T13:51:30.028Z,98984
2017-11-03T13:53:58.115Z,98987
2017-11-03T13:56:26.207Z,98983
2017-11-03T13:58:55.052Z,98978
2017-11-03T14:01:23.135Z,98986
2017-11-03T14:03:51.224Z,98978
2017-11-03T14:06:19.324Z,98978
2017-11-03T14:08:47.409Z,98982
2017-11-03T14:11:15.507Z,98983
2017-11-03T14:13:44.348Z,98976
2017-11-03T14:16:13.202Z,98980
2017-11-03T14:18:41.292Z,98976
2017-11-03T14:21:09.384Z,98978
2017-11-03T14:23:38.244Z,98974
2017-11-03T14:26:06.328Z,98977
2017-11-03T14:28:34.400Z,98969
2017-11-03T14:31:02.487Z,98975
2017-11-03T14:33:30.567Z,98973
2017-11-03T14:35:59.425Z,98978
2017-11-03T14:38:27.512Z,98967
2017-11-03T14:40:55.597Z,98969
2017-11-03T14:43:23.676Z,98961
2017-11-03T14:45:51.777Z,98965
2017-11-03T14:48:19.866Z,98954
2017-11-03T14:50:48.725Z,98962
2017-11-03T14:53:17.648Z,98961
2017-11-03T14:55:45.744Z,98957
2017-11-03T14:58:13.856Z,98955
2017-11-03T15:00:42.709Z,98948
2017-11-03T15:03:10.795Z,98941
2017-11-03T15:05:38.880Z,98954
2017-11-03T15:08:06.986Z,98950
2017-11-03T15:10:35.088Z,98949
2017-11-03T15:13:03.206Z,98952
2017-11-03T15:15:31.283Z,98952
2017-11-03T15:18:00.135Z,98953
2017-11-03T15:20:28.222Z,98950
2017-11-03T15:22:56.295Z,98945
2017-11-03T15:25:24.379Z,98940
2017-11-03T15:27:52.451Z,98946
2017-11-03T15:30:20.524Z,98948
2017-11-03T15:32:48.603Z,98948
2017-11-03T15:35:17.463Z,98947
2017-11-03T15:37:45.547Z,98943
2017-11-03T15:40:13.644Z,98940
2017-11-03T15:42:42.491Z,98938
2017-11-03T15:45:10.577Z,98934
2017-11-03T15:47:38.648Z,98942
2017-11-03T15:50:06.729Z,98945
2017-11-03T15:52:34.811Z,98939
2017-11-03T15:55:02.896Z,98950
2017-11-03T15:57:30.972Z,98944
2017-11-03T15:59:59.827Z,98945
2017-11-03T16:02:27.933Z,98946
2017-11-03T16:04:56.788Z,98946
2017-11-03T16:07:24.860Z,98950
2017-11-03T16:09:52.949Z,98947
2017-11-03T16:12:21.033Z,98942
2017-11-03T16:14:49.119Z,98954
2017-11-03T16:17:17.980Z,98949
2017-11-03T16:19:46.105Z,98950
2017-11-03T16:22:14.936Z,98951
2017-11-03T16:24:43.018Z,98943
2017-11-03T16:27:11.126Z,98944
2017-11-03T16:29:39.991Z,98938
2017-11-03T16:32:08.085Z,98941
2017-11-03T16:34:36.937Z,98945
2017-11-03T16:37:05.026Z,98941
2017-11-03T16:39:33.108Z,98935
2017-11-03T16:42:01.976Z,98937
2017-11-03T16:44:30.061Z,98944
2017-11-03T16:46:58.156Z,98932
2017-11-03T16:49:27.010Z,98941
2017-11-03T16:51:55.097Z,98944
2017-11-03T16:54:23.171Z,98937
2017-11-03T16:56:51.288Z,98941
2017-11-03T16:59:19.386Z,98935
2017-11-03T17:01:47.473Z,98934
2017-11-03T17:04:15.552Z,98939
2017-11-03T17:06:43.648Z,98941
2017-11-03T17:09:11.718Z,98940
2017-11-03T17:11:39.804Z,98942
2017-11-03T17:14:07.883Z,98937
2017-11-03T17:16:35.983Z,98937
2017-11-03T17:19:04.064Z,98935
2017-11-03T17:21:32.159Z,98939
2017-11-03T17:24:00.247Z,98928
2017-11-03T17:26:28.331Z,98930
2017-11-03T17:28:57.198Z,98939
2017-11-03T17:31:25.280Z,98945
2017-11-03T17:33:53.352Z,98935
2017-11-03T17:36:21.439Z,98932
2017-11-03T17:38:50.284Z,98930
2017-11-03T17:41:18.367Z,98929
2017-11-03T17:43:46.447Z,98932
2017-11-03T17:46:14.544Z,98938
2017-11-03T17:48:42.611Z,98934
2017-11-03T17:51:10.693Z,98934
2017-11-03T17:53:39.536Z,98923
2017-11-03T17:56:08.389Z,98924
2017-11-03T17:58:37.231Z,98926
2017-11-03T18:01:05.371Z,98936
2017-11-03T18:03:33.431Z,98925
2017-11-03T18:06:01.502Z,98928
2017-11-03T18:08:29.622Z,98933
2017-11-03T18:10:57.818Z,98929
2017-11-03T18:13:25.883Z,98929
2017-11-03T18:15:53.972Z,98919
2017-11-03T18:18:22.044Z,98920
2017-11-03T18:20:50.140Z,98926
2017-11-03T18:23:19.026Z,98919
2017-11-03T18:25:47.873Z,98921
2017-11-03T18:28:15.959Z,98919
2017-11-03T18:30:44.034Z,98926
2017-11-03T18:33:12.119Z,98923
2017-11-03T18:35:40.193Z,98926
2017-11-03T18:38:08.329Z,98924
2017-11-03T18:40:36.450Z,98919
2017-11-03T18:43:05.346Z,98909
2017-11-03T18:45:35.128Z,98913
2017-11-03T18:48:03.217Z,98911
2017-11-03T18:50:31.287Z,98900
2017-11-03T18:52:59.380Z,98906
2017-11-03T18:55:28.271Z,98916
2017-11-03T18:57:57.111Z,98912
2017-11-03T19:00:25.183Z,98915
2017-11-03T19:02:53.295Z,98912
2017-11-03T19:05:21.354Z,98904
2017-11-03T19:07:49.481Z,98912
2017-11-03T19:10:17.606Z,98908
2017-11-03T19:12:45.680Z,98911
2017-11-03T19:15:13.911Z,98910
2017-11-03T19:17:42.052Z,98911
2017-11-03T19:20:10.935Z,98914
2017-11-03T19:22:39.771Z,98922
2017-11-03T19:25:07.885Z,98918
2017-11-03T19:27:36.021Z,98920
2017-11-03T19:30:04.149Z,98917
2017-11-03T19:32:32.996Z,98920
2017-11-03T19:35:01.086Z,98926
2017-11-03T19:37:29.176Z,98916
2017-11-03T19:39:58.082Z,98922
2017-11-03T19:42:26.987Z,98927
2017-11-03T19:44:55.115Z,98927
2017-11-03T19:47:23.188Z,98924
2017-11-03T19:49:51.260Z,98925
2017-11-03T19:52:19.340Z,98916
2017-11-03T19:54:47.466Z,98915
2017-11-03T19:57:15.590Z,98917
2017-11-03T19:59:43.718Z,98916
2017-11-03T20:02:11.801Z,98911
2017-11-03T20:04:39.881Z,98909
2017-11-03T20:07:07.977Z,98907
2017-11-03T20:09:36.120Z,98907
2017-11-03T20:12:04.963Z,98899
2017-11-03T20:14:33.040Z,98908
2017-11-03T20:17:01.939Z,98897
2017-11-03T20:19:30.775Z,98904
2017-11-03T20:21:58.908Z,98905
2017-11-03T20:24:26.976Z,98901
2017-11-03T20:26:55.114Z,98901
2017-11-03T20:29:23.180Z,98909
2017-11-03T20:31:51.316Z,98903
2017-11-03T20:34:20.156Z,98907
2017-11-03T20:36:48.240Z,98908
2017-11-03T20:39:17.127Z,98906
2017-11-03T20:41:46.034Z,98904
2017-11-03T20:44:14.933Z,98901
2017-11-03T20:46:43.769Z,98900
2017-11-03T20:49:11.899Z,98909
2017-11-03T20:51:39.969Z,98902
2017-11-03T20:54:08.099Z,98905
2017-11-03T20:56:36.224Z,98904
2017-11-03T20:59:04.321Z,98907
2017-11-03T21:01:32.454Z,98911
2017-11-03T21:04:00.603Z,98918
2017-11-03T21:06:28.672Z,98911
2017-11-03T21:08:56.761Z,98903
2017-11-03T21:11:25.607Z,98912
2017-11-03T21:13:53.713Z,98904
2017-11-03T21:16:21.834Z,98901
2017-11-03T21:18:49.914Z,98905
2017-11-03T21:21:18.036Z,98897
2017-11-03T21:23:46.111Z,98904
2017-11-03T21:26:14.187Z,98894
2017-11-03T21:28:43.040Z,98889
2017-11-03T21:31:11.127Z,98884
2017-11-03T21:33:39.206Z,98881
2017-11-03T21:36:07.334Z,98882
2017-11-03T21:38:35.479Z,98886
2017-11-03T21:41:04.326Z,98878
2017-11-03T21:43:32.482Z,98882
2017-11-03T21:46:00.775Z,98884
2017-11-03T21:48:28.905Z,98873
2017-11-03T21:50:57.875Z,98872
2017-11-03T21:53:25.965Z,98883
2017-11-03T21:55:54.859Z,98876
2017-11-03T21:58:23.759Z,98876
2017-11-03T22:00:52.600Z,98886
2017-11-03T22:03:20.685Z,98883
2017-11-03T22:05:48.806Z,98886
2017-11-03T22:08:16.909Z,98893
2017-11-03T22:10:45.028Z,98888
2017-11-03T22:13:13.879Z,98892
2017-11-03T22:15:41.997Z,98887
2017-11-03T22:18:10.844Z,98880
2017-11-03T22:20:38.931Z,98885
2017-11-03T22:23:07.015Z,98883
2017-11-03T22:25:35.144Z,98880
2017-11-03T22:28:03.236Z,98880
2017-11-03T22:30:31.360Z,98887
2017-11-03T22:32:59.458Z,98881
2017-11-03T22:35:27.531Z,98885
2017-11-03T22:37:56.384Z,98887
2017-11-03T22:40:25.222Z,98879
2017-11-03T22:42:53.308Z,98883
2017-11-03T22:45:21.427Z,98882
2017-11-03T22:47:50.322Z,98878
2017-11-03T22:50:19.243Z,98879
2017-11-03T22:52:47.371Z,98875
2017-11-03T22:55:15.485Z,98877
2017-11-03T22:57:44.329Z,98880
2017-11-03T23:00:12.406Z,98886
2017-11-03T23:02:41.272Z,98890
2017-11-03T23:05:09.382Z,98883
2017-11-03T23:07:38.232Z,98883
2017-11-03T23:10:06.304Z,98873
2017-11-03T23:12:34.397Z,98880
2017-11-03T23:15:02.483Z,98873
2017-11-03T23:17:31.442Z,98875
2017-11-03T23:19:59.516Z,98875
2017-11-03T23:22:27.630Z,98875
2017-11-03T23:24:56.480Z,98873
2017-11-03T23:27:24.570Z,98868
2017-11-03T23:29:52.642Z,98858
2017-11-03T23:32:20.730Z,98860
2017-11-03T23:34:49.588Z,98861
2017-11-03T23:37:18.224Z,98867
2017-11-03T23:39:46.395Z,98855
2017-11-03T23:42:15.931Z,98860
2017-11-03T23:44:44.017Z,98854
2017-11-03T23:47:12.093Z,98859
2017-11-03T23:49:40.174Z,98857
2017-11-03T23:52:08.244Z,98851
2017-11-03T23:54:36.324Z,98859
2017-11-03T23:57:04.405Z,98847
2017-11-03T23:59:32.541Z,98850
